首页
METAR-TAF:

METAR-TAF

机场 :

Wausau, 威斯康辛州, 美国

纬度: 44-55-43N, 经度: 089-37-36W, 海拔: 366米

当前天气观测

该预报发布于39分钟前的23:54 UTC
风速8节,风向
温度 0°C
湿度 74%
气压 1016 hPa
能見度: 16.1公里
天空无云

METAR: KAUW 072354Z AUTO 17008KT 10SM CLR 00/M04 A2999 RMK AO2 SLP176 T00001044 10006 21011 58019

时间: 18:33 (00:33 UTC)

预报

该预报发布于59分钟前的23:34 UTC
预报有效从08日的 00点(UTC)到 08日的 24点(UTC)
风速10节,风向南转南东,有时为16节阵风
能見度: 10公里
散云层高于10000英尺
多云层高于25000英尺
从 08日的 0100点(UTC)
风速13节,风向,有时为23节阵风
能見度: 10公里
多云层高于15000英尺
从 08日的 0900点(UTC)
风速12节,风向西南,有时为20节阵风
能見度: 10公里
多云层高于4000英尺
从 08日的 1400点(UTC)
风速9节,风向西转西南,有时为16节阵风
能見度: 10公里
多云层高于1500英尺
从 08日的 1500点(UTC)
风速5节,风向西转西南,有时为14节阵风
能見度: 10公里
多云层高于600英尺
从 08日的 1700点(UTC)
风速4节,风向西
能見度: 10公里
阴天层高于400英尺
小毛毛雨

TAF: KAUW 072334Z 0800/0824 16010G16KT P6SM SCT100 BKN250 FM080100 18013G23KT P6SM BKN150 WS018/22050KT FM080900 23012G20KT P6SM BKN040 WS018/24035KT FM081400 24009G16KT P6SM BKN015 FM081500 25005G14KT P6SM BKN006 FM081700 27004KT P6SM -DZ OVC004

超过4000个机场的气象观测和天气预报(METAR&TAF报告)。

可查询的气象台以黄色和红色小点在地图上表示。

将鼠标移到小点上方,可查看气象台名称。

然后点击查看天气观测和预报。

如需切换地图:点击带黑十字的绿色按钮放大地图;点击带横线的绿色按钮缩小地图;或者点击绿色箭头查看邻近地区的地图。


METAR-TAF: